world map with CYWE marked

CYWE - Airport

This information may not be accurate or current and is not valid for navigation or flight planning. No warranty of fitness for any purpose is made or implied.

flag of Northwest Territoriesflag of Canada

Donate via PayPal

Additional information is available on the NEW Great Circle Mapper

Location
City:  Wekweeti, Northwest Territories, Canada
Name:Wekwet Airport
ICAO:CYWE

Details
Type:Airport (Airfield)
Use:Public/Civil
Latitude:6411'27"N (64.190833)
Longitude:11404'36"W (-114.076666)
Elevation:1208 ft (368 m)
Runways:1
Longest:2999 ft (914 m)

Weather
METAR:CYWE  041400Z AUTO 03003KT 330V040 9SM CLR M43/M48 A3032 RMK SLP349
TAF:CYWE  041338Z 0414/0502 VRB03KT P6SM SKC RMK FCST BASED ON AUTO OBS. NXT FCST BY 041900Z

Related Locations
Nearby:
Farthest:YCSK: 11151 mi / 17946 km
Casey Station [Casey Station Skiway], Wilkes Land, AQ

Find:

   beyond  
but within

Other Information
Maps:
Sources:

  


 


Great Circle Mapper   Great Circle Mapper
Great Circle Mapper FAQ   Great Circle Mapper FAQ
  Karl's Home Page
KLS   KLS Home
   GC on Facebook
Airlines of the World   Airlines of the World
Donate via PayPal


Copyright © 2004-2023, Karl L. Swartz. All rights reserved.
All trademarks mentioned herein belong to their respective owners.

Please see credits for attribution and copyright information.

Karl Swartz <karl@kls2.com>
  Powered by FreeBSD
Valid HTML 4.01!
Labeled with ICRA
hCard Microformat
Geo Microformat